sensor_id;sensor_type;location;lat;lon;timestamp;P1;durP1;ratioP1;P2;durP2;ratioP2
17965;SDS011;9108;53.204;10.424;2023-04-29T00:00:56;48.22;;;25.52;;
17965;SDS011;9108;53.204;10.424;2023-04-29T00:03:25;43.80;;;24.98;;
17965;SDS011;9108;53.204;10.424;2023-04-29T00:05:53;44.92;;;24.83;;
17965;SDS011;9108;53.204;10.424;2023-04-29T00:08:20;43.30;;;24.88;;
17965;SDS011;9108;53.204;10.424;2023-04-29T00:10:47;37.60;;;21.77;;
17965;SDS011;9108;53.204;10.424;2023-04-29T00:13:14;38.17;;;21.75;;
17965;SDS011;9108;53.204;10.424;2023-04-29T00:15:41;37.35;;;21.15;;
17965;SDS011;9108;53.204;10.424;2023-04-29T00:18:09;36.72;;;20.52;;
17965;SDS011;9108;53.204;10.424;2023-04-29T00:20:38;35.75;;;20.77;;
17965;SDS011;9108;53.204;10.424;2023-04-29T00:23:06;37.33;;;20.25;;
17965;SDS011;9108;53.204;10.424;2023-04-29T00:25:33;37.03;;;20.08;;
17965;SDS011;9108;53.204;10.424;2023-04-29T00:28:02;36.37;;;20.33;;
17965;SDS011;9108;53.204;10.424;2023-04-29T00:30:29;34.83;;;19.57;;
17965;SDS011;9108;53.204;10.424;2023-04-29T00:32:57;35.78;;;19.30;;
17965;SDS011;9108;53.204;10.424;2023-04-29T00:35:24;34.60;;;19.27;;
17965;SDS011;9108;53.204;10.424;2023-04-29T00:37:53;36.38;;;19.52;;
17965;SDS011;9108;53.204;10.424;2023-04-29T00:40:20;35.47;;;19.80;;
17965;SDS011;9108;53.204;10.424;2023-04-29T00:42:47;34.75;;;19.30;;
17965;SDS011;9108;53.204;10.424;2023-04-29T00:45:14;35.97;;;19.60;;
17965;SDS011;9108;53.204;10.424;2023-04-29T00:47:41;37.55;;;19.40;;
17965;SDS011;9108;53.204;10.424;2023-04-29T00:50:09;36.58;;;19.52;;
17965;SDS011;9108;53.204;10.424;2023-04-29T00:52:36;37.60;;;20.35;;
17965;SDS011;9108;53.204;10.424;2023-04-29T00:55:06;37.25;;;19.85;;
17965;SDS011;9108;53.204;10.424;2023-04-29T00:57:33;37.23;;;19.23;;
17965;SDS011;9108;53.204;10.424;2023-04-29T01:00:01;39.65;;;20.73;;
17965;SDS011;9108;53.204;10.424;2023-04-29T01:02:29;40.08;;;21.23;;
17965;SDS011;9108;53.204;10.424;2023-04-29T01:04:57;37.93;;;19.80;;
17965;SDS011;9108;53.204;10.424;2023-04-29T01:07:26;41.07;;;20.27;;
17965;SDS011;9108;53.204;10.424;2023-04-29T01:09:59;37.97;;;20.13;;
17965;SDS011;9108;53.204;10.424;2023-04-29T01:12:31;36.58;;;20.40;;
17965;SDS011;9108;53.204;10.424;2023-04-29T01:15:03;37.72;;;20.45;;
17965;SDS011;9108;53.204;10.424;2023-04-29T01:17:36;39.70;;;20.55;;
17965;SDS011;9108;53.204;10.424;2023-04-29T01:20:06;39.93;;;20.07;;
17965;SDS011;9108;53.204;10.424;2023-04-29T01:22:34;38.15;;;20.60;;
17965;SDS011;9108;53.204;10.424;2023-04-29T01:25:04;39.10;;;20.65;;
17965;SDS011;9108;53.204;10.424;2023-04-29T01:27:32;37.80;;;19.30;;
17965;SDS011;9108;53.204;10.424;2023-04-29T01:30:02;36.22;;;19.98;;
17965;SDS011;9108;53.204;10.424;2023-04-29T01:32:33;36.85;;;19.85;;
17965;SDS011;9108;53.204;10.424;2023-04-29T01:35:05;36.63;;;19.67;;
17965;SDS011;9108;53.204;10.424;2023-04-29T01:37:34;35.78;;;19.42;;
17965;SDS011;9108;53.204;10.424;2023-04-29T01:40:08;34.45;;;19.30;;
17965;SDS011;9108;53.204;10.424;2023-04-29T01:42:38;37.50;;;19.10;;
17965;SDS011;9108;53.204;10.424;2023-04-29T01:45:06;35.88;;;18.92;;
17965;SDS011;9108;53.204;10.424;2023-04-29T01:47:34;33.28;;;18.38;;
17965;SDS011;9108;53.204;10.424;2023-04-29T01:50:02;34.20;;;18.55;;
17965;SDS011;9108;53.204;10.424;2023-04-29T01:52:29;33.92;;;18.52;;
17965;SDS011;9108;53.204;10.424;2023-04-29T01:54:56;33.53;;;18.27;;
17965;SDS011;9108;53.204;10.424;2023-04-29T01:57:25;35.13;;;18.77;;
17965;SDS011;9108;53.204;10.424;2023-04-29T01:59:52;38.42;;;19.02;;
17965;SDS011;9108;53.204;10.424;2023-04-29T02:02:19;34.80;;;18.15;;
17965;SDS011;9108;53.204;10.424;2023-04-29T02:04:47;35.30;;;18.88;;
17965;SDS011;9108;53.204;10.424;2023-04-29T02:07:17;34.78;;;18.42;;
17965;SDS011;9108;53.204;10.424;2023-04-29T02:09:44;36.50;;;19.38;;
17965;SDS011;9108;53.204;10.424;2023-04-29T02:12:11;33.45;;;18.55;;
17965;SDS011;9108;53.204;10.424;2023-04-29T02:14:40;35.88;;;18.67;;
17965;SDS011;9108;53.204;10.424;2023-04-29T02:17:07;34.13;;;18.17;;
17965;SDS011;9108;53.204;10.424;2023-04-29T02:19:34;34.45;;;18.55;;
17965;SDS011;9108;53.204;10.424;2023-04-29T02:22:01;32.90;;;17.63;;
17965;SDS011;9108;53.204;10.424;2023-04-29T02:24:28;34.42;;;17.67;;
17965;SDS011;9108;53.204;10.424;2023-04-29T02:26:55;33.58;;;17.20;;
17965;SDS011;9108;53.204;10.424;2023-04-29T02:29:23;34.28;;;17.98;;
17965;SDS011;9108;53.204;10.424;2023-04-29T02:31:52;33.63;;;17.50;;
17965;SDS011;9108;53.204;10.424;2023-04-29T02:34:19;32.45;;;17.48;;
17965;SDS011;9108;53.204;10.424;2023-04-29T02:36:46;33.40;;;17.73;;
17965;SDS011;9108;53.204;10.424;2023-04-29T02:39:13;34.22;;;18.48;;
17965;SDS011;9108;53.204;10.424;2023-04-29T02:41:40;30.35;;;17.00;;
17965;SDS011;9108;53.204;10.424;2023-04-29T02:44:08;35.72;;;18.30;;
17965;SDS011;9108;53.204;10.424;2023-04-29T02:46:35;36.92;;;18.30;;
17965;SDS011;9108;53.204;10.424;2023-04-29T02:49:04;32.92;;;17.95;;
17965;SDS011;9108;53.204;10.424;2023-04-29T02:51:32;30.92;;;17.17;;
17965;SDS011;9108;53.204;10.424;2023-04-29T02:53:59;34.40;;;17.70;;
17965;SDS011;9108;53.204;10.424;2023-04-29T02:56:26;35.42;;;18.52;;
17965;SDS011;9108;53.204;10.424;2023-04-29T02:58:53;34.42;;;18.13;;
17965;SDS011;9108;53.204;10.424;2023-04-29T03:01:20;34.60;;;18.92;;
17965;SDS011;9108;53.204;10.424;2023-04-29T03:03:48;34.13;;;18.27;;
17965;SDS011;9108;53.204;10.424;2023-04-29T03:06:16;35.63;;;18.77;;
17965;SDS011;9108;53.204;10.424;2023-04-29T03:08:43;35.95;;;18.80;;
17965;SDS011;9108;53.204;10.424;2023-04-29T03:11:10;35.40;;;19.23;;
17965;SDS011;9108;53.204;10.424;2023-04-29T03:13:38;38.65;;;19.52;;
17965;SDS011;9108;53.204;10.424;2023-04-29T03:16:05;37.85;;;19.52;;
17965;SDS011;9108;53.204;10.424;2023-04-29T03:18:32;41.85;;;20.20;;
17965;SDS011;9108;53.204;10.424;2023-04-29T03:20:59;39.83;;;20.13;;
17965;SDS011;9108;53.204;10.424;2023-04-29T03:23:29;40.35;;;20.80;;
17965;SDS011;9108;53.204;10.424;2023-04-29T03:25:57;42.67;;;21.48;;
17965;SDS011;9108;53.204;10.424;2023-04-29T03:28:24;41.63;;;21.63;;
17965;SDS011;9108;53.204;10.424;2023-04-29T03:30:51;47.05;;;21.98;;
17965;SDS011;9108;53.204;10.424;2023-04-29T03:33:20;44.53;;;22.80;;
17965;SDS011;9108;53.204;10.424;2023-04-29T03:35:47;41.92;;;21.83;;
17965;SDS011;9108;53.204;10.424;2023-04-29T03:38:15;45.30;;;22.42;;
17965;SDS011;9108;53.204;10.424;2023-04-29T03:40:43;44.47;;;22.33;;
17965;SDS011;9108;53.204;10.424;2023-04-29T03:43:10;42.55;;;22.20;;
17965;SDS011;9108;53.204;10.424;2023-04-29T03:45:38;41.90;;;21.13;;
17965;SDS011;9108;53.204;10.424;2023-04-29T03:48:05;41.45;;;21.27;;
17965;SDS011;9108;53.204;10.424;2023-04-29T03:50:33;44.17;;;21.38;;
17965;SDS011;9108;53.204;10.424;2023-04-29T03:53:00;41.25;;;21.38;;
17965;SDS011;9108;53.204;10.424;2023-04-29T03:55:27;42.03;;;21.85;;
17965;SDS011;9108;53.204;10.424;2023-04-29T03:57:56;43.40;;;21.80;;
17965;SDS011;9108;53.204;10.424;2023-04-29T04:00:25;41.78;;;21.98;;
17965;SDS011;9108;53.204;10.424;2023-04-29T04:02:55;44.03;;;22.33;;
17965;SDS011;9108;53.204;10.424;2023-04-29T04:05:22;43.85;;;22.20;;
17965;SDS011;9108;53.204;10.424;2023-04-29T04:07:50;45.00;;;22.27;;
17965;SDS011;9108;53.204;10.424;2023-04-29T04:10:17;42.10;;;21.65;;
17965;SDS011;9108;53.204;10.424;2023-04-29T04:12:44;41.88;;;22.25;;
17965;SDS011;9108;53.204;10.424;2023-04-29T04:15:13;42.00;;;21.60;;
17965;SDS011;9108;53.204;10.424;2023-04-29T04:17:41;41.88;;;20.80;;
17965;SDS011;9108;53.204;10.424;2023-04-29T04:20:08;45.90;;;22.83;;
17965;SDS011;9108;53.204;10.424;2023-04-29T04:22:35;44.15;;;22.55;;
17965;SDS011;9108;53.204;10.424;2023-04-29T04:25:03;47.80;;;22.73;;
17965;SDS011;9108;53.204;10.424;2023-04-29T04:27:30;49.25;;;23.40;;
17965;SDS011;9108;53.204;10.424;2023-04-29T04:29:57;52.15;;;24.20;;
17965;SDS011;9108;53.204;10.424;2023-04-29T04:32:26;49.20;;;23.30;;
17965;SDS011;9108;53.204;10.424;2023-04-29T04:34:53;48.92;;;23.60;;
17965;SDS011;9108;53.204;10.424;2023-04-29T04:37:20;49.88;;;23.10;;
17965;SDS011;9108;53.204;10.424;2023-04-29T04:39:47;47.30;;;23.58;;
17965;SDS011;9108;53.204;10.424;2023-04-29T04:42:14;51.47;;;24.35;;
17965;SDS011;9108;53.204;10.424;2023-04-29T04:44:41;48.50;;;24.02;;
17965;SDS011;9108;53.204;10.424;2023-04-29T04:47:08;50.95;;;25.02;;
17965;SDS011;9108;53.204;10.424;2023-04-29T04:49:37;49.40;;;24.33;;
17965;SDS011;9108;53.204;10.424;2023-04-29T04:52:05;52.30;;;25.92;;
17965;SDS011;9108;53.204;10.424;2023-04-29T04:54:32;54.03;;;26.25;;
17965;SDS011;9108;53.204;10.424;2023-04-29T04:56:59;53.15;;;26.05;;
17965;SDS011;9108;53.204;10.424;2023-04-29T04:59:29;51.10;;;25.70;;
17965;SDS011;9108;53.204;10.424;2023-04-29T05:01:56;52.47;;;25.70;;
17965;SDS011;9108;53.204;10.424;2023-04-29T05:04:23;48.90;;;24.52;;
17965;SDS011;9108;53.204;10.424;2023-04-29T05:06:52;48.10;;;24.88;;
17965;SDS011;9108;53.204;10.424;2023-04-29T05:09:19;50.60;;;25.23;;
17965;SDS011;9108;53.204;10.424;2023-04-29T05:11:46;47.25;;;24.02;;
17965;SDS011;9108;53.204;10.424;2023-04-29T05:14:13;51.65;;;24.35;;
17965;SDS011;9108;53.204;10.424;2023-04-29T05:16:42;50.27;;;25.20;;
17965;SDS011;9108;53.204;10.424;2023-04-29T05:19:10;52.22;;;25.08;;
17965;SDS011;9108;53.204;10.424;2023-04-29T05:21:37;55.33;;;25.95;;
17965;SDS011;9108;53.204;10.424;2023-04-29T05:24:06;50.03;;;24.75;;
17965;SDS011;9108;53.204;10.424;2023-04-29T05:26:33;46.88;;;23.58;;
17965;SDS011;9108;53.204;10.424;2023-04-29T05:29:00;47.33;;;23.48;;
17965;SDS011;9108;53.204;10.424;2023-04-29T05:31:27;42.42;;;22.80;;
17965;SDS011;9108;53.204;10.424;2023-04-29T05:33:55;44.92;;;22.83;;
17965;SDS011;9108;53.204;10.424;2023-04-29T05:36:22;39.83;;;21.70;;
17965;SDS011;9108;53.204;10.424;2023-04-29T05:38:49;41.78;;;22.52;;
17965;SDS011;9108;53.204;10.424;2023-04-29T05:41:18;39.92;;;21.00;;
17965;SDS011;9108;53.204;10.424;2023-04-29T05:43:45;40.92;;;21.60;;
17965;SDS011;9108;53.204;10.424;2023-04-29T05:46:12;44.85;;;22.70;;
17965;SDS011;9108;53.204;10.424;2023-04-29T05:48:40;45.95;;;22.90;;
17965;SDS011;9108;53.204;10.424;2023-04-29T05:51:07;44.40;;;23.08;;
17965;SDS011;9108;53.204;10.424;2023-04-29T05:53:34;41.13;;;22.10;;
17965;SDS011;9108;53.204;10.424;2023-04-29T05:56:02;41.45;;;21.80;;
17965;SDS011;9108;53.204;10.424;2023-04-29T05:58:33;45.10;;;22.58;;
17965;SDS011;9108;53.204;10.424;2023-04-29T06:01:00;42.67;;;22.63;;
17965;SDS011;9108;53.204;10.424;2023-04-29T06:03:28;44.47;;;22.42;;
17965;SDS011;9108;53.204;10.424;2023-04-29T06:05:55;43.55;;;22.58;;
17965;SDS011;9108;53.204;10.424;2023-04-29T06:08:22;42.50;;;22.60;;
17965;SDS011;9108;53.204;10.424;2023-04-29T06:10:49;42.83;;;22.38;;
17965;SDS011;9108;53.204;10.424;2023-04-29T06:13:17;40.92;;;22.20;;
17965;SDS011;9108;53.204;10.424;2023-04-29T06:15:45;37.58;;;20.48;;
17965;SDS011;9108;53.204;10.424;2023-04-29T06:18:12;37.75;;;20.17;;
17965;SDS011;9108;53.204;10.424;2023-04-29T06:20:39;38.75;;;20.13;;
17965;SDS011;9108;53.204;10.424;2023-04-29T06:23:06;36.13;;;19.27;;
17965;SDS011;9108;53.204;10.424;2023-04-29T06:25:34;39.13;;;20.20;;
17965;SDS011;9108;53.204;10.424;2023-04-29T06:28:01;36.38;;;19.52;;
17965;SDS011;9108;53.204;10.424;2023-04-29T06:30:28;33.53;;;18.42;;
17965;SDS011;9108;53.204;10.424;2023-04-29T06:32:57;34.97;;;18.27;;
17965;SDS011;9108;53.204;10.424;2023-04-29T06:35:24;34.83;;;18.17;;
17965;SDS011;9108;53.204;10.424;2023-04-29T06:37:51;32.92;;;17.95;;
17965;SDS011;9108;53.204;10.424;2023-04-29T06:40:26;32.42;;;16.17;;
17965;SDS011;9108;53.204;10.424;2023-04-29T06:42:59;30.50;;;15.55;;
17965;SDS011;9108;53.204;10.424;2023-04-29T06:45:28;23.55;;;13.23;;
17965;SDS011;9108;53.204;10.424;2023-04-29T06:47:57;23.15;;;12.93;;
17965;SDS011;9108;53.204;10.424;2023-04-29T06:50:24;23.83;;;13.17;;
17965;SDS011;9108;53.204;10.424;2023-04-29T06:52:52;26.08;;;13.05;;
17965;SDS011;9108;53.204;10.424;2023-04-29T06:55:19;24.20;;;13.20;;
17965;SDS011;9108;53.204;10.424;2023-04-29T06:57:46;24.38;;;13.95;;
17965;SDS011;9108;53.204;10.424;2023-04-29T07:00:13;20.65;;;12.55;;
17965;SDS011;9108;53.204;10.424;2023-04-29T07:02:43;18.03;;;11.13;;
17965;SDS011;9108;53.204;10.424;2023-04-29T07:05:12;21.20;;;11.38;;
17965;SDS011;9108;53.204;10.424;2023-04-29T07:07:39;16.05;;;10.30;;
17965;SDS011;9108;53.204;10.424;2023-04-29T07:10:06;16.58;;;10.18;;
17965;SDS011;9108;53.204;10.424;2023-04-29T07:12:33;17.30;;;9.15;;
17965;SDS011;9108;53.204;10.424;2023-04-29T07:15:01;15.90;;;8.93;;
17965;SDS011;9108;53.204;10.424;2023-04-29T07:17:28;18.07;;;9.33;;
17965;SDS011;9108;53.204;10.424;2023-04-29T07:19:56;12.93;;;8.03;;
17965;SDS011;9108;53.204;10.424;2023-04-29T07:22:24;14.60;;;7.90;;
17965;SDS011;9108;53.204;10.424;2023-04-29T07:24:52;15.68;;;7.95;;
17965;SDS011;9108;53.204;10.424;2023-04-29T07:27:19;15.32;;;8.40;;
17965;SDS011;9108;53.204;10.424;2023-04-29T07:29:46;15.70;;;8.15;;
17965;SDS011;9108;53.204;10.424;2023-04-29T07:32:14;15.55;;;8.02;;
17965;SDS011;9108;53.204;10.424;2023-04-29T07:34:41;12.65;;;7.15;;
17965;SDS011;9108;53.204;10.424;2023-04-29T07:37:08;15.23;;;7.80;;
17965;SDS011;9108;53.204;10.424;2023-04-29T07:39:36;12.98;;;7.65;;
17965;SDS011;9108;53.204;10.424;2023-04-29T07:42:03;12.73;;;7.50;;
17965;SDS011;9108;53.204;10.424;2023-04-29T07:44:31;14.30;;;7.25;;
17965;SDS011;9108;53.204;10.424;2023-04-29T07:46:58;12.95;;;7.03;;
17965;SDS011;9108;53.204;10.424;2023-04-29T07:49:25;12.55;;;7.03;;
17965;SDS011;9108;53.204;10.424;2023-04-29T07:51:52;13.40;;;6.95;;
17965;SDS011;9108;53.204;10.424;2023-04-29T07:54:19;12.55;;;6.88;;
17965;SDS011;9108;53.204;10.424;2023-04-29T07:56:48;12.43;;;6.55;;
17965;SDS011;9108;53.204;10.424;2023-04-29T07:59:15;13.52;;;7.10;;
17965;SDS011;9108;53.204;10.424;2023-04-29T08:01:42;12.30;;;7.30;;
17965;SDS011;9108;53.204;10.424;2023-04-29T08:04:09;12.88;;;7.25;;
17965;SDS011;9108;53.204;10.424;2023-04-29T08:06:38;14.95;;;7.00;;
17965;SDS011;9108;53.204;10.424;2023-04-29T08:09:06;10.13;;;6.03;;
17965;SDS011;9108;53.204;10.424;2023-04-29T08:11:33;12.15;;;6.18;;
17965;SDS011;9108;53.204;10.424;2023-04-29T08:14:02;10.87;;;6.03;;
17965;SDS011;9108;53.204;10.424;2023-04-29T08:16:29;12.93;;;6.50;;
17965;SDS011;9108;53.204;10.424;2023-04-29T08:18:56;11.87;;;5.93;;
17965;SDS011;9108;53.204;10.424;2023-04-29T08:21:23;12.18;;;6.10;;
17965;SDS011;9108;53.204;10.424;2023-04-29T08:23:51;13.48;;;6.38;;
17965;SDS011;9108;53.204;10.424;2023-04-29T08:26:19;12.90;;;6.60;;
17965;SDS011;9108;53.204;10.424;2023-04-29T08:28:47;11.65;;;5.95;;
17965;SDS011;9108;53.204;10.424;2023-04-29T08:31:18;10.73;;;6.80;;
17965;SDS011;9108;53.204;10.424;2023-04-29T08:33:46;10.52;;;5.75;;
17965;SDS011;9108;53.204;10.424;2023-04-29T08:36:13;11.63;;;6.00;;
17965;SDS011;9108;53.204;10.424;2023-04-29T08:38:40;10.18;;;5.68;;
17965;SDS011;9108;53.204;10.424;2023-04-29T08:41:08;13.85;;;6.47;;
17965;SDS011;9108;53.204;10.424;2023-04-29T08:43:35;11.63;;;6.05;;
17965;SDS011;9108;53.204;10.424;2023-04-29T08:46:04;11.37;;;6.20;;
17965;SDS011;9108;53.204;10.424;2023-04-29T08:48:33;10.73;;;5.68;;
17965;SDS011;9108;53.204;10.424;2023-04-29T08:51:02;12.70;;;6.10;;
17965;SDS011;9108;53.204;10.424;2023-04-29T08:53:29;13.40;;;6.50;;
17965;SDS011;9108;53.204;10.424;2023-04-29T08:55:56;11.38;;;5.93;;
17965;SDS011;9108;53.204;10.424;2023-04-29T08:58:24;12.50;;;6.15;;
17965;SDS011;9108;53.204;10.424;2023-04-29T09:00:52;13.82;;;6.15;;
17965;SDS011;9108;53.204;10.424;2023-04-29T09:03:21;11.52;;;6.40;;
17965;SDS011;9108;53.204;10.424;2023-04-29T09:05:53;13.97;;;6.50;;
17965;SDS011;9108;53.204;10.424;2023-04-29T09:08:20;12.18;;;6.28;;
17965;SDS011;9108;53.204;10.424;2023-04-29T09:10:48;12.70;;;6.22;;
17965;SDS011;9108;53.204;10.424;2023-04-29T09:13:22;11.75;;;5.90;;
17965;SDS011;9108;53.204;10.424;2023-04-29T09:15:49;9.68;;;5.40;;
17965;SDS011;9108;53.204;10.424;2023-04-29T09:21:00;13.13;;;5.80;;
17965;SDS011;9108;53.204;10.424;2023-04-29T09:23:38;11.65;;;5.88;;
17965;SDS011;9108;53.204;10.424;2023-04-29T09:26:05;12.88;;;6.22;;
17965;SDS011;9108;53.204;10.424;2023-04-29T09:28:32;9.13;;;5.50;;
17965;SDS011;9108;53.204;10.424;2023-04-29T09:31:00;13.32;;;6.07;;
17965;SDS011;9108;53.204;10.424;2023-04-29T09:33:30;13.03;;;5.90;;
17965;SDS011;9108;53.204;10.424;2023-04-29T09:35:57;12.88;;;6.22;;
17965;SDS011;9108;53.204;10.424;2023-04-29T09:38:26;13.32;;;5.80;;
17965;SDS011;9108;53.204;10.424;2023-04-29T09:40:53;14.13;;;5.95;;
17965;SDS011;9108;53.204;10.424;2023-04-29T09:43:20;12.55;;;6.05;;
17965;SDS011;9108;53.204;10.424;2023-04-29T09:45:47;11.50;;;5.20;;
17965;SDS011;9108;53.204;10.424;2023-04-29T09:48:15;11.10;;;5.70;;
17965;SDS011;9108;53.204;10.424;2023-04-29T09:50:43;11.27;;;5.82;;
17965;SDS011;9108;53.204;10.424;2023-04-29T09:53:11;12.27;;;6.03;;
17965;SDS011;9108;53.204;10.424;2023-04-29T09:55:58;10.93;;;5.87;;
17965;SDS011;9108;53.204;10.424;2023-04-29T09:58:29;13.57;;;5.53;;
17965;SDS011;9108;53.204;10.424;2023-04-29T10:01:01;11.18;;;5.50;;
17965;SDS011;9108;53.204;10.424;2023-04-29T10:03:30;12.38;;;5.70;;
17965;SDS011;9108;53.204;10.424;2023-04-29T10:05:58;12.32;;;6.20;;
17965;SDS011;9108;53.204;10.424;2023-04-29T10:08:28;12.75;;;5.82;;
17965;SDS011;9108;53.204;10.424;2023-04-29T10:10:55;10.25;;;5.97;;
17965;SDS011;9108;53.204;10.424;2023-04-29T10:13:27;12.20;;;5.88;;
17965;SDS011;9108;53.204;10.424;2023-04-29T10:15:57;13.02;;;5.63;;
17965;SDS011;9108;53.204;10.424;2023-04-29T10:18:25;10.65;;;5.78;;
17965;SDS011;9108;53.204;10.424;2023-04-29T10:20:56;11.07;;;5.90;;
17965;SDS011;9108;53.204;10.424;2023-04-29T10:23:24;11.50;;;5.90;;
17965;SDS011;9108;53.204;10.424;2023-04-29T10:25:51;10.27;;;5.70;;
17965;SDS011;9108;53.204;10.424;2023-04-29T10:28:19;14.00;;;6.05;;
17965;SDS011;9108;53.204;10.424;2023-04-29T10:30:49;11.82;;;6.38;;
17965;SDS011;9108;53.204;10.424;2023-04-29T10:33:19;11.30;;;5.47;;
17965;SDS011;9108;53.204;10.424;2023-04-29T10:35:48;12.82;;;5.38;;
17965;SDS011;9108;53.204;10.424;2023-04-29T10:38:19;10.20;;;5.72;;
17965;SDS011;9108;53.204;10.424;2023-04-29T10:40:49;10.68;;;5.93;;
17965;SDS011;9108;53.204;10.424;2023-04-29T10:43:21;12.05;;;5.75;;
17965;SDS011;9108;53.204;10.424;2023-04-29T10:45:50;11.48;;;5.72;;
17965;SDS011;9108;53.204;10.424;2023-04-29T10:48:48;11.13;;;5.38;;
17965;SDS011;9108;53.204;10.424;2023-04-29T10:51:29;10.60;;;5.38;;
17965;SDS011;9108;53.204;10.424;2023-04-29T10:54:06;11.05;;;6.25;;
17965;SDS011;9108;53.204;10.424;2023-04-29T10:56:38;10.05;;;6.30;;
17965;SDS011;9108;53.204;10.424;2023-04-29T10:59:10;13.90;;;6.25;;
17965;SDS011;9108;53.204;10.424;2023-04-29T11:01:45;11.63;;;5.68;;
17965;SDS011;9108;53.204;10.424;2023-04-29T11:04:17;11.75;;;5.68;;
17965;SDS011;9108;53.204;10.424;2023-04-29T11:06:45;12.05;;;6.53;;
17965;SDS011;9108;53.204;10.424;2023-04-29T11:09:13;12.75;;;6.47;;
17965;SDS011;9108;53.204;10.424;2023-04-29T11:11:48;15.73;;;6.65;;
17965;SDS011;9108;53.204;10.424;2023-04-29T11:14:20;13.40;;;6.28;;
17965;SDS011;9108;53.204;10.424;2023-04-29T11:16:49;11.25;;;5.63;;
17965;SDS011;9108;53.204;10.424;2023-04-29T11:19:18;11.10;;;6.30;;
17965;SDS011;9108;53.204;10.424;2023-04-29T11:21:45;11.35;;;5.40;;
17965;SDS011;9108;53.204;10.424;2023-04-29T11:24:13;11.80;;;5.70;;
17965;SDS011;9108;53.204;10.424;2023-04-29T11:26:43;11.90;;;5.95;;
17965;SDS011;9108;53.204;10.424;2023-04-29T11:29:10;11.43;;;5.88;;
17965;SDS011;9108;53.204;10.424;2023-04-29T11:31:37;14.50;;;6.15;;
17965;SDS011;9108;53.204;10.424;2023-04-29T11:34:04;10.32;;;6.35;;
17965;SDS011;9108;53.204;10.424;2023-04-29T11:36:34;13.07;;;5.90;;
17965;SDS011;9108;53.204;10.424;2023-04-29T11:39:18;10.37;;;5.90;;
17965;SDS011;9108;53.204;10.424;2023-04-29T11:41:45;12.05;;;5.72;;
17965;SDS011;9108;53.204;10.424;2023-04-29T11:44:12;10.82;;;5.68;;
17965;SDS011;9108;53.204;10.424;2023-04-29T11:46:42;10.75;;;5.60;;
17965;SDS011;9108;53.204;10.424;2023-04-29T11:49:16;9.93;;;5.53;;
17965;SDS011;9108;53.204;10.424;2023-04-29T11:51:45;9.37;;;5.40;;
17965;SDS011;9108;53.204;10.424;2023-04-29T11:54:12;9.27;;;5.32;;
17965;SDS011;9108;53.204;10.424;2023-04-29T11:56:42;9.45;;;5.50;;
17965;SDS011;9108;53.204;10.424;2023-04-29T11:59:12;10.50;;;5.47;;
17965;SDS011;9108;53.204;10.424;2023-04-29T12:01:40;9.77;;;4.93;;
17965;SDS011;9108;53.204;10.424;2023-04-29T12:04:10;10.40;;;5.45;;
17965;SDS011;9108;53.204;10.424;2023-04-29T12:06:40;9.48;;;4.80;;
17965;SDS011;9108;53.204;10.424;2023-04-29T12:09:11;8.45;;;4.70;;
17965;SDS011;9108;53.204;10.424;2023-04-29T12:11:39;11.32;;;5.07;;
17965;SDS011;9108;53.204;10.424;2023-04-29T12:14:11;8.40;;;4.75;;
17965;SDS011;9108;53.204;10.424;2023-04-29T12:16:41;9.50;;;4.82;;
17965;SDS011;9108;53.204;10.424;2023-04-29T12:19:17;8.02;;;4.80;;
17965;SDS011;9108;53.204;10.424;2023-04-29T12:21:48;8.32;;;4.32;;
17965;SDS011;9108;53.204;10.424;2023-04-29T12:24:19;8.80;;;4.10;;
17965;SDS011;9108;53.204;10.424;2023-04-29T12:26:46;7.63;;;4.30;;
17965;SDS011;9108;53.204;10.424;2023-04-29T12:29:15;9.57;;;5.10;;
17965;SDS011;9108;53.204;10.424;2023-04-29T12:31:46;10.32;;;5.20;;
17965;SDS011;9108;53.204;10.424;2023-04-29T12:34:23;11.57;;;5.83;;
17965;SDS011;9108;53.204;10.424;2023-04-29T12:36:54;9.25;;;4.70;;
17965;SDS011;9108;53.204;10.424;2023-04-29T12:39:26;9.82;;;4.80;;
17965;SDS011;9108;53.204;10.424;2023-04-29T12:41:57;9.20;;;4.57;;
17965;SDS011;9108;53.204;10.424;2023-04-29T12:44:24;8.77;;;4.90;;
17965;SDS011;9108;53.204;10.424;2023-04-29T12:46:55;11.45;;;5.93;;
17965;SDS011;9108;53.204;10.424;2023-04-29T12:49:32;9.10;;;5.07;;
17965;SDS011;9108;53.204;10.424;2023-04-29T12:52:03;10.40;;;5.30;;
17965;SDS011;9108;53.204;10.424;2023-04-29T12:54:35;10.23;;;5.40;;
17965;SDS011;9108;53.204;10.424;2023-04-29T12:57:05;9.35;;;5.38;;
17965;SDS011;9108;53.204;10.424;2023-04-29T12:59:40;11.98;;;6.03;;
17965;SDS011;9108;53.204;10.424;2023-04-29T13:02:10;11.93;;;6.15;;
17965;SDS011;9108;53.204;10.424;2023-04-29T13:04:39;12.03;;;5.80;;
17965;SDS011;9108;53.204;10.424;2023-04-29T13:07:06;14.30;;;6.20;;
17965;SDS011;9108;53.204;10.424;2023-04-29T13:12:34;14.70;;;6.10;;
17965;SDS011;9108;53.204;10.424;2023-04-29T13:15:22;10.80;;;5.55;;
17965;SDS011;9108;53.204;10.424;2023-04-29T13:17:54;10.57;;;5.65;;
17965;SDS011;9108;53.204;10.424;2023-04-29T13:20:22;9.95;;;5.30;;
17965;SDS011;9108;53.204;10.424;2023-04-29T13:22:54;9.80;;;5.13;;
17965;SDS011;9108;53.204;10.424;2023-04-29T13:25:21;9.68;;;5.90;;
17965;SDS011;9108;53.204;10.424;2023-04-29T13:30:40;11.43;;;6.03;;
17965;SDS011;9108;53.204;10.424;2023-04-29T13:33:10;9.82;;;5.40;;
17965;SDS011;9108;53.204;10.424;2023-04-29T13:35:38;8.85;;;5.20;;
17965;SDS011;9108;53.204;10.424;2023-04-29T13:38:05;10.50;;;5.30;;
17965;SDS011;9108;53.204;10.424;2023-04-29T13:40:35;11.23;;;5.72;;
17965;SDS011;9108;53.204;10.424;2023-04-29T13:43:02;11.00;;;5.75;;
17965;SDS011;9108;53.204;10.424;2023-04-29T13:45:30;9.23;;;4.93;;
17965;SDS011;9108;53.204;10.424;2023-04-29T13:48:00;9.80;;;5.45;;
17965;SDS011;9108;53.204;10.424;2023-04-29T13:50:27;10.27;;;5.72;;
17965;SDS011;9108;53.204;10.424;2023-04-29T13:52:54;12.43;;;6.38;;
17965;SDS011;9108;53.204;10.424;2023-04-29T13:55:22;10.65;;;6.10;;
17965;SDS011;9108;53.204;10.424;2023-04-29T13:57:58;10.65;;;5.38;;
17965;SDS011;9108;53.204;10.424;2023-04-29T14:00:29;10.70;;;5.22;;
17965;SDS011;9108;53.204;10.424;2023-04-29T14:02:56;10.95;;;5.38;;
17965;SDS011;9108;53.204;10.424;2023-04-29T14:05:27;9.68;;;5.20;;
17965;SDS011;9108;53.204;10.424;2023-04-29T14:07:54;9.85;;;4.35;;
17965;SDS011;9108;53.204;10.424;2023-04-29T14:10:22;8.70;;;4.80;;
17965;SDS011;9108;53.204;10.424;2023-04-29T14:12:49;9.88;;;4.53;;
17965;SDS011;9108;53.204;10.424;2023-04-29T14:15:19;9.73;;;4.25;;
17965;SDS011;9108;53.204;10.424;2023-04-29T14:17:46;8.20;;;4.10;;
17965;SDS011;9108;53.204;10.424;2023-04-29T14:20:17;9.52;;;4.05;;
17965;SDS011;9108;53.204;10.424;2023-04-29T14:22:46;7.57;;;4.20;;
17965;SDS011;9108;53.204;10.424;2023-04-29T14:25:14;8.98;;;3.90;;
17965;SDS011;9108;53.204;10.424;2023-04-29T14:27:49;10.73;;;3.80;;
17965;SDS011;9108;53.204;10.424;2023-04-29T14:30:30;9.20;;;3.88;;
17965;SDS011;9108;53.204;10.424;2023-04-29T14:33:01;8.30;;;3.70;;
17965;SDS011;9108;53.204;10.424;2023-04-29T14:35:28;9.52;;;4.07;;
17965;SDS011;9108;53.204;10.424;2023-04-29T14:38:02;8.77;;;3.90;;
17965;SDS011;9108;53.204;10.424;2023-04-29T14:40:40;7.38;;;3.67;;
17965;SDS011;9108;53.204;10.424;2023-04-29T14:43:07;8.82;;;3.80;;
17965;SDS011;9108;53.204;10.424;2023-04-29T14:45:34;9.57;;;3.80;;
17965;SDS011;9108;53.204;10.424;2023-04-29T14:48:06;8.93;;;3.70;;